createdAt,value
2022-08-05T00:00:31.953Z,100181.47
2022-08-05T00:02:33.702Z,100183.25
2022-08-05T00:04:37.657Z,100192.78
2022-08-05T00:06:41.895Z,100197.81
2022-08-05T00:08:44.587Z,100204.59
2022-08-05T00:10:49.120Z,100201.19
2022-08-05T00:12:56.424Z,100197.00
2022-08-05T00:14:58.618Z,100206.59
2022-08-05T00:17:02.059Z,100200.22
2022-08-05T00:19:04.822Z,100201.34
2022-08-05T00:21:09.134Z,100204.13
2022-08-05T00:23:12.928Z,100202.59
2022-08-05T00:25:14.798Z,100203.50
2022-08-05T00:27:18.243Z,100199.09
2022-08-05T00:29:22.702Z,100215.47
2022-08-05T00:31:53.590Z,100204.78
2022-08-05T00:34:55.988Z,100206.69
2022-08-05T00:36:16.028Z,100216.66
2022-08-05T00:38:34.007Z,100201.34
2022-08-05T00:40:47.001Z,100206.75
2022-08-05T00:42:56.142Z,100209.91
2022-08-05T00:44:57.883Z,100217.38
2022-08-05T00:47:01.925Z,100214.22
2022-08-05T00:49:06.000Z,100218.91
2022-08-05T00:51:50.824Z,100221.31
2022-08-05T00:53:59.895Z,100218.47
2022-08-05T00:55:54.060Z,100214.44
2022-08-05T00:57:59.084Z,100220.75
2022-08-05T01:00:00.976Z,100216.03
2022-08-05T01:02:03.061Z,100214.00
2022-08-05T01:04:13.649Z,100221.56
2022-08-05T01:06:17.377Z,100206.09
2022-08-05T01:08:39.925Z,100193.38
2022-08-05T01:10:51.711Z,100191.63
2022-08-05T01:13:12.877Z,100183.72
2022-08-05T01:15:35.616Z,100160.81
2022-08-05T01:17:44.028Z,100144.25
2022-08-05T01:20:02.368Z,100125.88
2022-08-05T01:22:24.089Z,100119.63
2022-08-05T01:24:46.487Z,100133.81
2022-08-05T01:26:59.690Z,100140.44
2022-08-05T01:29:05.565Z,100142.03
2022-08-05T01:31:10.560Z,100128.47
2022-08-05T01:33:15.922Z,100145.03
2022-08-05T01:35:50.988Z,100136.34
2022-08-05T01:37:54.597Z,100142.69
2022-08-05T01:39:59.187Z,100135.88
2022-08-05T01:42:03.104Z,100129.84
2022-08-05T01:44:09.814Z,100121.53
2022-08-05T01:46:16.694Z,100117.56
2022-08-05T01:48:36.665Z,100120.28
2022-08-05T01:50:40.794Z,100117.41
2022-08-05T01:52:56.190Z,100111.38
2022-08-05T01:55:04.309Z,100101.38
2022-08-05T01:58:13.738Z,100098.56
2022-08-05T01:59:33.902Z,100094.50
2022-08-05T02:01:40.008Z,100100.19
2022-08-05T02:03:46.403Z,100095.03
2022-08-05T02:05:49.091Z,100099.75
2022-08-05T02:08:01.724Z,100102.06
2022-08-05T02:10:05.616Z,100109.13
2022-08-05T02:12:16.846Z,100112.63
2022-08-05T02:14:27.516Z,100115.34
2022-08-05T02:16:36.669Z,100113.78
2022-08-05T02:18:42.631Z,100116.59
2022-08-05T02:20:49.601Z,100120.13
2022-08-05T02:22:58.128Z,100132.34
2022-08-05T02:25:05.110Z,100151.00
2022-08-05T02:27:10.570Z,100153.78
2022-08-05T02:29:21.716Z,100153.00
2022-08-05T02:31:34.550Z,100145.06
2022-08-05T02:33:40.680Z,100151.78
2022-08-05T02:35:50.983Z,100152.16
2022-08-05T02:38:00.293Z,100150.56
2022-08-05T02:40:06.827Z,100153.66
2022-08-05T02:42:11.838Z,100166.41
2022-08-05T02:44:30.241Z,100168.44
2022-08-05T02:46:33.675Z,100171.63
2022-08-05T02:48:37.519Z,100172.47
2022-08-05T02:50:43.621Z,100176.03
2022-08-05T02:52:46.693Z,100185.19
2022-08-05T02:54:51.104Z,100178.06
2022-08-05T02:56:54.637Z,100169.38
2022-08-05T02:58:57.660Z,100167.41
2022-08-05T03:01:02.505Z,100156.69
2022-08-05T03:03:10.407Z,100165.81
2022-08-05T03:05:13.709Z,100181.34
2022-08-05T03:07:21.431Z,100185.72
2022-08-05T03:09:38.449Z,100179.84
2022-08-05T03:11:54.424Z,100183.06
2022-08-05T03:14:03.306Z,100206.09
2022-08-05T03:16:06.271Z,100213.66
2022-08-05T03:18:12.584Z,100213.22
2022-08-05T03:20:18.920Z,100211.25
2022-08-05T03:22:32.011Z,100219.19
2022-08-05T03:24:34.314Z,100202.16
2022-08-05T03:26:37.217Z,100189.13
2022-08-05T03:28:38.841Z,100171.41
2022-08-05T03:30:41.090Z,100147.00
2022-08-05T03:32:44.194Z,100123.47
2022-08-05T03:34:50.763Z,100104.66
2022-08-05T03:36:53.183Z,100116.72
2022-08-05T03:38:54.808Z,100181.94
2022-08-05T03:40:57.749Z,100228.97
2022-08-05T03:43:01.483Z,100269.31
2022-08-05T03:45:23.238Z,100288.66
2022-08-05T03:47:25.610Z,100274.31
2022-08-05T03:49:52.150Z,100251.81
2022-08-05T03:52:36.628Z,100286.66
2022-08-05T03:55:52.517Z,100282.63
2022-08-05T03:56:56.201Z,100264.41
2022-08-05T03:59:21.355Z,100281.88
2022-08-05T04:01:32.305Z,100296.56
2022-08-05T04:03:38.085Z,100301.28
2022-08-05T04:05:40.640Z,100325.84
2022-08-05T04:07:51.480Z,100323.84
2022-08-05T04:10:01.623Z,100340.53
2022-08-05T04:12:05.881Z,100360.34
2022-08-05T04:14:29.936Z,100365.50
2022-08-05T04:16:32.984Z,100364.72
2022-08-05T04:18:34.843Z,100380.56
2022-08-05T04:20:36.527Z,100386.13
2022-08-05T04:22:38.149Z,100394.44
2022-08-05T04:24:53.005Z,100379.75
2022-08-05T04:26:54.740Z,100387.28
2022-08-05T04:28:59.946Z,100397.59
2022-08-05T04:31:01.627Z,100395.25
2022-08-05T04:33:09.909Z,100394.44
2022-08-05T04:35:19.463Z,100387.28
2022-08-05T04:37:22.869Z,100395.31
2022-08-05T04:39:44.293Z,100408.47
2022-08-05T04:41:55.417Z,100423.97
2022-08-05T04:43:57.086Z,100420.75
2022-08-05T04:45:58.832Z,100415.31
2022-08-05T04:48:07.475Z,100438.28
2022-08-05T04:50:37.490Z,100436.28
2022-08-05T04:52:39.680Z,100439.41
2022-08-05T04:54:42.108Z,100438.22
2022-08-05T04:56:45.081Z,100436.22
2022-08-05T04:58:46.652Z,100437.81
2022-08-05T05:00:50.640Z,100440.19
2022-08-05T05:02:52.630Z,100433.81
2022-08-05T05:05:02.237Z,100438.94
2022-08-05T05:07:04.966Z,100447.25
2022-08-05T05:09:17.228Z,100452.78
2022-08-05T05:11:19.435Z,100463.16
2022-08-05T05:13:23.983Z,100463.53
2022-08-05T05:15:57.364Z,100463.22
2022-08-05T05:17:55.922Z,100471.97
2022-08-05T05:19:58.807Z,100466.03
2022-08-05T05:22:06.265Z,100469.63
2022-08-05T05:24:23.209Z,100473.25
2022-08-05T05:26:46.472Z,100495.47
2022-08-05T05:28:53.032Z,100491.09
2022-08-05T05:30:55.116Z,100493.09
2022-08-05T05:32:57.330Z,100472.47
2022-08-05T05:35:02.677Z,100438.00
2022-08-05T05:37:04.973Z,100447.13
2022-08-05T05:39:09.878Z,100445.53
2022-08-05T05:41:13.175Z,100443.16
2022-08-05T05:43:27.875Z,100439.22
2022-08-05T05:45:48.262Z,100441.22
2022-08-05T05:48:05.229Z,100445.97
2022-08-05T05:50:10.172Z,100451.50
2022-08-05T05:52:28.386Z,100449.13
2022-08-05T05:54:49.916Z,100459.00
2022-08-05T05:56:52.767Z,100453.81
2022-08-05T05:58:54.630Z,100451.84
2022-08-05T06:01:12.051Z,100450.63
2022-08-05T06:03:40.589Z,100447.00
2022-08-05T06:05:35.685Z,100442.25
2022-08-05T06:07:41.797Z,100442.63
2022-08-05T06:09:59.849Z,100439.06
2022-08-05T06:12:02.791Z,100430.38
2022-08-05T06:14:04.591Z,100430.72
2022-08-05T06:16:31.778Z,100420.84
2022-08-05T06:18:31.359Z,100423.25
2022-08-05T06:20:33.371Z,100418.19
2022-08-05T06:22:37.302Z,100412.69
2022-08-05T06:24:48.317Z,100415.50
2022-08-05T06:26:51.439Z,100416.78
2022-08-05T06:28:53.583Z,100416.03
2022-08-05T06:30:55.570Z,100414.06
2022-08-05T06:32:59.051Z,100414.47
2022-08-05T06:35:05.769Z,100416.44
2022-08-05T06:37:08.223Z,100414.41
2022-08-05T06:39:10.037Z,100419.13
2022-08-05T06:41:12.400Z,100407.25
2022-08-05T06:43:51.437Z,100406.78
2022-08-05T06:46:02.929Z,100408.31
2022-08-05T06:48:44.247Z,100418.63
2022-08-05T06:50:21.418Z,100425.31
2022-08-05T06:52:37.067Z,100430.41
2022-08-05T06:54:39.949Z,100431.97
2022-08-05T06:56:41.593Z,100438.34
2022-08-05T06:58:57.201Z,100443.06
2022-08-05T07:01:00.289Z,100440.28
2022-08-05T07:03:03.375Z,100450.22
2022-08-05T07:05:15.436Z,100451.38
2022-08-05T07:07:24.024Z,100456.44
2022-08-05T07:09:43.239Z,100471.03
2022-08-05T07:11:49.404Z,100470.53
2022-08-05T07:13:59.406Z,100468.06
2022-08-05T07:16:04.594Z,100473.50
2022-08-05T07:18:10.184Z,100484.50
2022-08-05T07:22:35.246Z,100481.13
2022-08-05T07:24:44.019Z,100486.22
2022-08-05T07:26:54.438Z,100489.72
2022-08-05T07:28:56.271Z,100488.84
2022-08-05T07:31:01.401Z,100486.16
2022-08-05T07:33:09.255Z,100486.59
2022-08-05T07:36:03.642Z,100495.34
2022-08-05T07:37:37.485Z,100497.03
2022-08-05T07:40:04.680Z,100487.53
2022-08-05T07:42:14.448Z,100484.00
2022-08-05T07:44:19.231Z,100484.81
2022-08-05T07:46:25.457Z,100490.44
2022-08-05T07:49:00.589Z,100488.41
2022-08-05T07:50:50.517Z,100480.91
2022-08-05T07:52:52.215Z,100472.97
2022-08-05T07:54:54.744Z,100465.84
2022-08-05T07:57:13.531Z,100471.41
2022-08-05T07:59:17.893Z,100457.53
2022-08-05T08:01:25.003Z,100473.84
2022-08-05T08:03:44.053Z,100473.53
2022-08-05T08:05:49.570Z,100485.94
2022-08-05T08:07:59.745Z,100487.97
2022-08-05T08:10:02.292Z,100493.94
2022-08-05T08:12:12.490Z,100481.78
2022-08-05T08:14:21.835Z,100458.69
2022-08-05T08:16:35.215Z,100469.41
2022-08-05T08:18:50.213Z,100487.28
2022-08-05T08:21:01.866Z,100501.59
2022-08-05T08:23:06.298Z,100502.03
2022-08-05T08:25:16.436Z,100509.19
2022-08-05T08:27:19.608Z,100513.13
2022-08-05T08:30:05.571Z,100502.44
2022-08-05T08:31:43.329Z,100481.84
2022-08-05T08:33:45.838Z,100466.34
2022-08-05T08:35:52.396Z,100472.66
2022-08-05T08:37:56.498Z,100469.47
2022-08-05T08:39:59.943Z,100457.53
2022-08-05T08:42:10.729Z,100447.59
2022-08-05T08:45:16.986Z,100447.22
2022-08-05T08:46:52.106Z,100442.09
2022-08-05T08:49:07.751Z,100427.38
2022-08-05T08:52:02.001Z,100413.44
2022-08-05T08:53:44.492Z,100415.38
2022-08-05T08:56:04.014Z,100416.13
2022-08-05T08:58:08.799Z,100423.66
2022-08-05T09:00:11.496Z,100452.56
2022-08-05T09:02:20.048Z,100451.78
2022-08-05T09:04:22.019Z,100421.66
2022-08-05T09:06:33.013Z,100377.22
2022-08-05T09:08:40.148Z,100336.00
2022-08-05T09:10:42.575Z,100357.38
2022-08-05T09:12:50.987Z,100406.09
2022-08-05T09:15:04.053Z,100406.09
2022-08-05T09:17:42.969Z,100400.94
2022-08-05T09:19:36.397Z,100415.53
2022-08-05T09:22:30.915Z,100428.19
2022-08-05T09:24:05.491Z,100440.44
2022-08-05T09:26:10.117Z,100446.75
2022-08-05T09:28:16.435Z,100457.78
2022-08-05T09:30:23.733Z,100464.19
2022-08-05T09:32:45.910Z,100466.50
2022-08-05T09:34:55.327Z,100466.91
2022-08-05T09:36:59.218Z,100461.69
2022-08-05T09:39:17.991Z,100458.44
2022-08-05T09:41:23.636Z,100448.53
2022-08-05T09:43:41.207Z,100450.91
2022-08-05T09:46:06.617Z,100450.09
2022-08-05T09:48:21.668Z,100439.31
2022-08-05T09:50:38.711Z,100434.19
2022-08-05T09:52:45.477Z,100446.84
2022-08-05T09:54:54.622Z,100456.31
2022-08-05T09:57:01.758Z,100458.28
2022-08-05T09:59:06.884Z,100458.66
2022-08-05T10:01:15.380Z,100470.13
2022-08-05T10:03:24.922Z,100470.97
2022-08-05T10:05:46.609Z,100473.78
2022-08-05T10:08:34.770Z,100472.19
2022-08-05T10:10:15.813Z,100463.03
2022-08-05T10:12:33.499Z,100450.66
2022-08-05T10:14:37.089Z,100458.59
2022-08-05T10:16:52.377Z,100461.44
2022-08-05T10:18:55.352Z,100469.31
2022-08-05T10:21:06.117Z,100464.88
2022-08-05T10:23:34.353Z,100461.66
2022-08-05T10:25:34.895Z,100469.19
2022-08-05T10:28:13.381Z,100471.47
2022-08-05T10:30:41.313Z,100476.66
2022-08-05T10:32:52.808Z,100476.72
2022-08-05T10:34:45.891Z,100476.22
2022-08-05T10:36:49.373Z,100480.88
2022-08-05T10:38:57.303Z,100484.00
2022-08-05T10:41:13.813Z,100494.03
2022-08-05T10:43:31.049Z,100484.16
2022-08-05T10:45:39.985Z,100483.72
2022-08-05T10:47:56.139Z,100495.44
2022-08-05T10:50:32.364Z,100495.13
2022-08-05T10:52:42.958Z,100493.44
2022-08-05T10:55:05.384Z,100487.06
2022-08-05T10:57:07.580Z,100487.94
2022-08-05T11:00:02.988Z,100479.13
2022-08-05T11:01:55.362Z,100454.47
2022-08-05T11:04:07.989Z,100450.44
2022-08-05T11:06:16.032Z,100452.84
2022-08-05T11:08:36.854Z,100461.50
2022-08-05T11:10:50.370Z,100456.09
2022-08-05T11:13:01.471Z,100479.78
2022-08-05T11:15:19.670Z,100490.91
2022-08-05T11:18:00.214Z,100483.22
2022-08-05T11:20:11.182Z,100479.56
2022-08-05T11:22:43.254Z,100488.25
2022-08-05T11:26:04.086Z,100497.19
2022-08-05T11:27:51.679Z,100504.25
2022-08-05T11:30:02.204Z,100498.22
2022-08-05T11:32:24.389Z,100509.00
2022-08-05T11:34:39.484Z,100505.03
2022-08-05T11:36:52.568Z,100509.72
2022-08-05T11:38:55.313Z,100505.44
2022-08-05T11:41:13.824Z,100497.63
2022-08-05T11:44:04.787Z,100506.13
2022-08-05T11:46:27.191Z,100496.50
2022-08-05T11:48:11.619Z,100513.31
2022-08-05T11:50:15.145Z,100517.72
2022-08-05T11:52:23.416Z,100520.50
2022-08-05T11:54:34.363Z,100521.72
2022-08-05T11:56:43.895Z,100521.22
2022-08-05T11:58:52.939Z,100525.94
2022-08-05T12:01:01.712Z,100523.75
2022-08-05T12:03:29.194Z,100526.06
2022-08-05T12:05:39.811Z,100513.31
2022-08-05T12:08:08.179Z,100519.66
2022-08-05T12:10:09.223Z,100520.41
2022-08-05T12:12:11.510Z,100515.06
2022-08-05T12:14:13.699Z,100510.72
2022-08-05T12:16:18.369Z,100517.03
2022-08-05T12:18:32.629Z,100512.69
2022-08-05T12:20:36.120Z,100505.66
2022-08-05T12:22:37.735Z,100514.16
2022-08-05T12:24:43.601Z,100515.66
2022-08-05T12:26:52.904Z,100513.81
2022-08-05T12:28:54.488Z,100519.06
2022-08-05T12:30:56.724Z,100511.69
2022-08-05T12:32:58.469Z,100517.03
2022-08-05T12:35:09.509Z,100519.91
2022-08-05T12:37:29.734Z,100522.66
2022-08-05T12:39:37.263Z,100523.97
2022-08-05T12:41:43.536Z,100529.63
2022-08-05T12:43:51.390Z,100521.09
2022-08-05T12:45:54.203Z,100531.31
2022-08-05T12:48:01.789Z,100534.81
2022-08-05T12:50:17.663Z,100540.38
2022-08-05T12:52:28.321Z,100534.09
2022-08-05T12:54:32.116Z,100542.50
2022-08-05T12:56:35.308Z,100554.94
2022-08-05T12:58:51.433Z,100546.72
2022-08-05T13:02:01.734Z,100543.84
2022-08-05T13:03:17.343Z,100545.34
2022-08-05T13:05:19.264Z,100549.94
2022-08-05T13:07:54.705Z,100543.91
2022-08-05T13:09:54.491Z,100540.13
2022-08-05T13:12:03.737Z,100550.69
2022-08-05T13:14:20.235Z,100550.97
2022-08-05T13:16:27.824Z,100548.47
2022-08-05T13:18:37.589Z,100541.72
2022-08-05T13:20:40.218Z,100543.88
2022-08-05T13:22:47.999Z,100547.53
2022-08-05T13:24:57.489Z,100545.84
2022-08-05T13:26:59.856Z,100547.53
2022-08-05T13:29:05.134Z,100546.91
2022-08-05T13:31:13.983Z,100546.00
2022-08-05T13:34:23.559Z,100546.22
2022-08-05T13:35:47.005Z,100544.19
2022-08-05T13:37:55.587Z,100543.53
2022-08-05T13:40:16.699Z,100543.72
2022-08-05T13:42:20.214Z,100543.38
2022-08-05T13:44:21.827Z,100538.34
2022-08-05T13:46:43.785Z,100537.16
2022-08-05T13:48:58.233Z,100538.75
2022-08-05T13:51:05.781Z,100536.53
2022-08-05T13:53:15.618Z,100529.06
2022-08-05T13:55:40.902Z,100522.50
2022-08-05T13:57:51.203Z,100517.16
2022-08-05T13:59:57.082Z,100525.47
2022-08-05T14:02:02.598Z,100520.75
2022-08-05T14:04:04.848Z,100517.34
2022-08-05T14:06:26.185Z,100519.03
2022-08-05T14:08:32.638Z,100510.06
2022-08-05T14:10:34.609Z,100512.06
2022-08-05T14:12:36.475Z,100504.22
2022-08-05T14:14:38.106Z,100509.63
2022-08-05T14:16:39.855Z,100506.72
2022-08-05T14:18:44.126Z,100512.78
2022-08-05T14:20:47.362Z,100513.81
2022-08-05T14:22:49.873Z,100520.91
2022-08-05T14:24:53.288Z,100517.09
2022-08-05T14:27:15.590Z,100511.13
2022-08-05T14:29:17.819Z,100505.44
2022-08-05T14:32:03.158Z,100504.69
2022-08-05T14:34:00.132Z,100509.06
2022-08-05T14:36:03.181Z,100498.84
2022-08-05T14:38:04.780Z,100504.47
2022-08-05T14:40:09.096Z,100502.75
2022-08-05T14:42:29.399Z,100508.59
2022-08-05T14:44:31.173Z,100509.81
2022-08-05T14:46:35.041Z,100503.94
2022-08-05T14:48:37.210Z,100505.31
2022-08-05T14:50:40.869Z,100502.34
2022-08-05T14:52:52.526Z,100508.00
2022-08-05T14:54:55.984Z,100505.75
2022-08-05T14:56:59.554Z,100505.91
2022-08-05T14:59:01.459Z,100499.78
2022-08-05T15:01:05.148Z,100511.38
2022-08-05T15:03:17.894Z,100509.44
2022-08-05T15:05:19.997Z,100504.69
2022-08-05T15:08:06.139Z,100512.72
2022-08-05T15:09:52.750Z,100508.97
2022-08-05T15:11:56.064Z,100516.69
2022-08-05T15:14:00.654Z,100522.81
2022-08-05T15:16:02.678Z,100530.88
2022-08-05T15:18:05.607Z,100526.22
2022-08-05T15:20:17.119Z,100529.50
2022-08-05T15:22:21.063Z,100530.44
2022-08-05T15:24:23.109Z,100532.47
2022-08-05T15:26:32.155Z,100532.09
2022-08-05T15:28:34.214Z,100538.94
2022-08-05T15:30:37.314Z,100541.84
2022-08-05T15:32:39.934Z,100551.47
2022-08-05T15:34:42.207Z,100563.13
2022-08-05T15:36:43.899Z,100565.22
2022-08-05T15:38:46.408Z,100572.38
2022-08-05T15:41:21.019Z,100575.56
2022-08-05T15:43:19.770Z,100580.34
2022-08-05T15:45:23.122Z,100590.41
2022-08-05T15:47:43.146Z,100590.09
2022-08-05T15:49:53.398Z,100594.53
2022-08-05T15:52:13.812Z,100591.44
2022-08-05T15:54:18.700Z,100595.34
2022-08-05T15:56:21.170Z,100600.38
2022-08-05T15:58:23.123Z,100603.38
2022-08-05T16:00:26.146Z,100594.00
2022-08-05T16:02:46.333Z,100597.38
2022-08-05T16:04:48.915Z,100606.09
2022-08-05T16:06:50.501Z,100612.44
2022-08-05T16:08:55.217Z,100612.44
2022-08-05T16:10:57.486Z,100614.13
2022-08-05T16:12:59.041Z,100617.44
2022-08-05T16:15:01.012Z,100621.47
2022-08-05T16:17:02.880Z,100620.66
2022-08-05T16:19:07.465Z,100623.34
2022-08-05T16:21:11.603Z,100624.84
2022-08-05T16:23:15.325Z,100638.78
2022-08-05T16:25:17.052Z,100633.19
2022-08-05T16:27:18.929Z,100634.78
2022-08-05T16:29:21.385Z,100631.16
2022-08-05T16:31:23.306Z,100645.09
2022-08-05T16:33:25.012Z,100646.63
2022-08-05T16:35:33.642Z,100653.38
2022-08-05T16:38:02.025Z,100647.00
2022-08-05T16:40:05.689Z,100652.13
2022-08-05T16:42:14.042Z,100658.84
2022-08-05T16:44:18.506Z,100661.22
2022-08-05T16:46:24.291Z,100660.84
2022-08-05T16:48:33.405Z,100668.34
2022-08-05T16:50:37.385Z,100660.84
2022-08-05T16:52:39.194Z,100659.25
2022-08-05T16:54:47.963Z,100662.38
2022-08-05T16:56:52.450Z,100666.75
2022-08-05T16:58:54.125Z,100672.72
2022-08-05T17:00:55.846Z,100681.41
2022-08-05T17:02:57.779Z,100673.84
2022-08-05T17:04:59.507Z,100675.81
2022-08-05T17:07:03.564Z,100684.22
2022-08-05T17:09:13.960Z,100687.78
2022-08-05T17:11:17.279Z,100693.34
2022-08-05T17:13:21.219Z,100694.13
2022-08-05T17:15:23.160Z,100695.75
2022-08-05T17:17:42.811Z,100692.56
2022-08-05T17:19:45.540Z,100693.38
2022-08-05T17:21:51.481Z,100691.03
2022-08-05T17:24:05.632Z,100692.19
2022-08-05T17:26:09.947Z,100696.53
2022-08-05T17:28:15.363Z,100697.72
2022-08-05T17:30:18.897Z,100700.50
2022-08-05T17:32:30.156Z,100700.88
2022-08-05T17:34:34.918Z,100694.97
2022-08-05T17:36:40.609Z,100697.75
2022-08-05T17:38:42.928Z,100693.75
2022-08-05T17:40:46.393Z,100702.09
2022-08-05T17:42:51.060Z,100696.53
2022-08-05T17:44:53.779Z,100699.31
2022-08-05T17:46:55.370Z,100708.03
2022-08-05T17:48:57.203Z,100706.44
2022-08-05T17:50:59.654Z,100714.78
2022-08-05T17:53:05.180Z,100715.19
2022-08-05T17:55:08.031Z,100713.63
2022-08-05T17:57:12.328Z,100716.00
2022-08-05T17:59:14.112Z,100712.44
2022-08-05T18:01:22.746Z,100715.19
2022-08-05T18:03:58.468Z,100722.34
2022-08-05T18:05:50.037Z,100718.75
2022-08-05T18:07:56.879Z,100729.06
2022-08-05T18:10:02.129Z,100736.63
2022-08-05T18:12:13.392Z,100729.91
2022-08-05T18:14:23.934Z,100736.28
2022-08-05T18:16:25.745Z,100740.22
2022-08-05T18:18:27.399Z,100738.66
2022-08-05T18:20:31.614Z,100745.38
2022-08-05T18:22:36.394Z,100745.78
2022-08-05T18:24:58.693Z,100765.97
2022-08-05T18:27:00.458Z,100762.41
2022-08-05T18:29:03.503Z,100771.53
2022-08-05T18:31:05.476Z,100767.97
2022-08-05T18:33:07.124Z,100775.50
2022-08-05T18:35:09.017Z,100773.53
2022-08-05T18:37:33.542Z,100772.72
2022-08-05T18:40:31.468Z,100773.16
2022-08-05T18:42:02.218Z,100772.34
2022-08-05T18:44:09.424Z,100778.69
2022-08-05T18:46:11.180Z,100780.28
2022-08-05T18:48:31.314Z,100785.44
2022-08-05T18:50:42.155Z,100792.16
2022-08-05T18:52:51.138Z,100791.78
2022-08-05T18:54:54.448Z,100790.97
2022-08-05T18:56:56.149Z,100787.03
2022-08-05T18:59:00.800Z,100783.06
2022-08-05T19:01:04.506Z,100798.50
2022-08-05T19:03:07.109Z,100801.69
2022-08-05T19:06:05.895Z,100810.38
2022-08-05T19:07:45.112Z,100818.28
2022-08-05T19:09:47.360Z,100818.34
2022-08-05T19:11:59.256Z,100825.47
2022-08-05T19:14:20.053Z,100839.69
2022-08-05T19:16:29.358Z,100841.69
2022-08-05T19:18:34.811Z,100850.03
2022-08-05T19:20:36.966Z,100856.75
2022-08-05T19:22:43.028Z,100861.47
2022-08-05T19:24:56.015Z,100867.44
2022-08-05T19:26:57.969Z,100869.84
2022-08-05T19:29:00.034Z,100877.34
2022-08-05T19:31:05.880Z,100880.13
2022-08-05T19:33:12.695Z,100884.91
2022-08-05T19:35:18.772Z,100883.31
2022-08-05T19:37:29.812Z,100882.88
2022-08-05T19:39:51.014Z,100886.06
2022-08-05T19:42:06.162Z,100887.63
2022-08-05T19:44:13.769Z,100892.38
2022-08-05T19:46:16.532Z,100904.25
2022-08-05T19:48:30.400Z,100890.78
2022-08-05T19:50:32.013Z,100890.78
2022-08-05T19:52:33.690Z,100893.16
2022-08-05T19:54:35.641Z,100905.84
2022-08-05T19:56:40.084Z,100915.75
2022-08-05T19:58:53.770Z,100914.16
2022-08-05T20:00:55.857Z,100913.75
2022-08-05T20:02:57.816Z,100915.72
2022-08-05T20:05:04.651Z,100922.03
2022-08-05T20:07:10.449Z,100929.16
2022-08-05T20:09:15.200Z,100932.34
2022-08-05T20:11:19.608Z,100927.19
2022-08-05T20:13:30.372Z,100919.66
2022-08-05T20:15:51.672Z,100930.34
2022-08-05T20:18:01.341Z,100933.09
2022-08-05T20:20:09.483Z,100934.69
2022-08-05T20:22:12.782Z,100933.09
2022-08-05T20:24:14.412Z,100939.03
2022-08-05T20:26:18.459Z,100937.06
2022-08-05T20:28:20.682Z,100945.34
2022-08-05T20:30:24.168Z,100944.56
2022-08-05T20:32:28.308Z,100954.47
2022-08-05T20:34:30.075Z,100953.28
2022-08-05T20:36:34.061Z,100961.97
2022-08-05T20:38:35.779Z,100965.91
2022-08-05T20:40:37.688Z,100972.25
2022-08-05T20:42:44.989Z,100984.09
2022-08-05T20:44:46.707Z,100982.75
2022-08-05T20:46:48.781Z,100987.00
2022-08-05T20:48:51.038Z,100983.06
2022-08-05T20:50:53.399Z,100993.41
2022-08-05T20:52:56.354Z,100987.81
2022-08-05T20:55:55.311Z,100991.34
2022-08-05T20:57:24.644Z,100994.16
2022-08-05T21:00:10.471Z,100997.72
2022-08-05T21:02:03.265Z,101011.13
2022-08-05T21:04:05.948Z,101003.63
2022-08-05T21:06:28.722Z,101009.16
2022-08-05T21:08:41.930Z,101015.50
2022-08-05T21:10:49.057Z,101018.56
2022-08-05T21:12:58.356Z,101024.06
2022-08-05T21:15:11.839Z,101016.50
2022-08-05T21:17:15.045Z,101010.84
2022-08-05T21:19:17.167Z,101018.25
2022-08-05T21:21:24.455Z,101020.16
2022-08-05T21:23:26.213Z,101026.88
2022-08-05T21:25:33.973Z,101025.66
2022-08-05T21:27:38.959Z,101023.28
2022-08-05T21:29:40.961Z,101026.84
2022-08-05T21:31:42.669Z,101033.50
2022-08-05T21:33:47.889Z,101036.63
2022-08-05T21:35:56.008Z,101032.69
2022-08-05T21:38:00.978Z,101034.78
2022-08-05T21:40:05.840Z,101029.19
2022-08-05T21:42:41.481Z,101035.91
2022-08-05T21:44:31.809Z,101032.44
2022-08-05T21:46:34.423Z,101039.97
2022-08-05T21:48:36.414Z,101029.66
2022-08-05T21:50:38.138Z,101034.81
2022-08-05T21:52:39.978Z,101039.56
2022-08-05T21:54:51.119Z,101042.38
2022-08-05T21:57:29.206Z,101047.59
2022-08-05T21:59:24.275Z,101047.56
2022-08-05T22:01:27.979Z,101049.91
2022-08-05T22:03:48.612Z,101035.94
2022-08-05T22:05:54.550Z,101044.66
2022-08-05T22:08:02.289Z,101054.53
2022-08-05T22:10:04.818Z,101060.75
2022-08-05T22:12:10.609Z,101057.28
2022-08-05T22:14:32.559Z,101065.56
2022-08-05T22:16:51.291Z,101061.66
2022-08-05T22:18:58.678Z,101067.97
2022-08-05T22:21:00.458Z,101071.09
2022-08-05T22:23:16.588Z,101067.16
2022-08-05T22:25:27.480Z,101069.94
2022-08-05T22:28:08.113Z,101076.22
2022-08-05T22:29:54.446Z,101076.97
2022-08-05T22:32:02.778Z,101088.88
2022-08-05T22:34:05.078Z,101091.19
2022-08-05T22:36:07.929Z,101085.63
2022-08-05T22:38:11.689Z,101085.63
2022-08-05T22:40:16.632Z,101093.06
2022-08-05T22:42:26.187Z,101097.41
2022-08-05T22:44:29.294Z,101099.97
2022-08-05T22:46:30.965Z,101104.28
2022-08-05T22:48:35.451Z,101102.16
2022-08-05T22:50:37.051Z,101110.03
2022-08-05T22:52:48.859Z,101116.75
2022-08-05T22:54:50.407Z,101111.16
2022-08-05T22:56:52.033Z,101115.81
2022-08-05T22:58:55.316Z,101120.47
2022-08-05T23:00:57.164Z,101121.22
2022-08-05T23:02:58.969Z,101121.59
2022-08-05T23:05:05.293Z,101119.47
2022-08-05T23:07:07.011Z,101130.06
2022-08-05T23:09:27.795Z,101128.63
2022-08-05T23:11:30.311Z,101120.53
2022-08-05T23:13:32.455Z,101116.63
2022-08-05T23:15:36.454Z,101128.41
2022-08-05T23:18:00.409Z,101126.81
2022-08-05T23:20:06.572Z,101129.91
2022-08-05T23:22:19.262Z,101136.47
2022-08-05T23:24:31.780Z,101139.22
2022-08-05T23:26:33.341Z,101141.84
2022-08-05T23:28:35.015Z,101143.88
2022-08-05T23:30:39.972Z,101142.28
2022-08-05T23:32:45.469Z,101155.22
2022-08-05T23:34:47.180Z,101156.03
2022-08-05T23:36:50.325Z,101160.47
2022-08-05T23:38:54.557Z,101164.38
2022-08-05T23:40:56.274Z,101173.38
2022-08-05T23:42:57.873Z,101167.81
2022-08-05T23:45:03.924Z,101168.59
2022-08-05T23:47:16.864Z,101173.94
2022-08-05T23:49:23.673Z,101168.78
2022-08-05T23:51:27.343Z,101181.66
2022-08-05T23:53:46.383Z,101179.63
2022-08-05T23:55:48.725Z,101176.78
2022-08-05T23:57:52.822Z,101186.28
